sensor_id;sensor_type;location;lat;lon;timestamp;P1;durP1;ratioP1;P2;durP2;ratioP2
2558;SDS011;1289;53.488;10.006;2022-08-16T00:00:41;13.13;;;11.83;;
2558;SDS011;1289;53.488;10.006;2022-08-16T00:03:09;13.40;;;12.20;;
2558;SDS011;1289;53.488;10.006;2022-08-16T00:05:36;15.07;;;13.70;;
2558;SDS011;1289;53.488;10.006;2022-08-16T00:08:04;17.07;;;12.63;;
2558;SDS011;1289;53.488;10.006;2022-08-16T00:10:31;12.30;;;11.20;;
2558;SDS011;1289;53.488;10.006;2022-08-16T00:12:58;12.70;;;11.57;;
2558;SDS011;1289;53.488;10.006;2022-08-16T00:15:27;16.37;;;12.23;;
2558;SDS011;1289;53.488;10.006;2022-08-16T00:17:56;14.37;;;12.97;;
2558;SDS011;1289;53.488;10.006;2022-08-16T00:20:23;13.90;;;12.70;;
2558;SDS011;1289;53.488;10.006;2022-08-16T00:22:50;13.90;;;12.63;;
2558;SDS011;1289;53.488;10.006;2022-08-16T00:25:20;14.27;;;13.00;;
2558;SDS011;1289;53.488;10.006;2022-08-16T00:27:47;14.53;;;13.23;;
2558;SDS011;1289;53.488;10.006;2022-08-16T00:30:15;14.00;;;12.60;;
2558;SDS011;1289;53.488;10.006;2022-08-16T00:32:43;13.50;;;12.30;;
2558;SDS011;1289;53.488;10.006;2022-08-16T00:35:12;14.60;;;13.30;;
2558;SDS011;1289;53.488;10.006;2022-08-16T00:37:40;13.20;;;12.00;;
2558;SDS011;1289;53.488;10.006;2022-08-16T00:40:08;14.93;;;13.50;;
2558;SDS011;1289;53.488;10.006;2022-08-16T00:42:37;14.20;;;12.53;;
2558;SDS011;1289;53.488;10.006;2022-08-16T00:45:04;14.10;;;12.73;;
2558;SDS011;1289;53.488;10.006;2022-08-16T00:47:36;14.50;;;13.07;;
2558;SDS011;1289;53.488;10.006;2022-08-16T00:50:05;13.97;;;12.77;;
2558;SDS011;1289;53.488;10.006;2022-08-16T00:52:32;15.33;;;13.90;;
2558;SDS011;1289;53.488;10.006;2022-08-16T00:54:58;15.90;;;14.50;;
2558;SDS011;1289;53.488;10.006;2022-08-16T00:57:25;17.23;;;14.47;;
2558;SDS011;1289;53.488;10.006;2022-08-16T00:59:53;16.30;;;14.70;;
2558;SDS011;1289;53.488;10.006;2022-08-16T01:02:20;15.83;;;13.90;;
2558;SDS011;1289;53.488;10.006;2022-08-16T01:04:47;14.30;;;12.90;;
2558;SDS011;1289;53.488;10.006;2022-08-16T01:07:13;13.00;;;11.77;;
2558;SDS011;1289;53.488;10.006;2022-08-16T01:09:40;15.07;;;13.33;;
2558;SDS011;1289;53.488;10.006;2022-08-16T01:12:07;15.60;;;13.97;;
2558;SDS011;1289;53.488;10.006;2022-08-16T01:14:38;16.60;;;15.00;;
2558;SDS011;1289;53.488;10.006;2022-08-16T01:17:08;15.10;;;13.70;;
2558;SDS011;1289;53.488;10.006;2022-08-16T01:19:36;14.67;;;13.10;;
2558;SDS011;1289;53.488;10.006;2022-08-16T01:22:07;16.10;;;14.47;;
2558;SDS011;1289;53.488;10.006;2022-08-16T01:24:39;17.03;;;15.30;;
2558;SDS011;1289;53.488;10.006;2022-08-16T01:27:11;16.80;;;15.10;;
2558;SDS011;1289;53.488;10.006;2022-08-16T01:29:40;18.63;;;15.90;;
2558;SDS011;1289;53.488;10.006;2022-08-16T01:32:09;16.93;;;15.33;;
2558;SDS011;1289;53.488;10.006;2022-08-16T01:34:36;16.90;;;15.23;;
2558;SDS011;1289;53.488;10.006;2022-08-16T01:37:05;16.87;;;15.27;;
2558;SDS011;1289;53.488;10.006;2022-08-16T01:39:35;16.40;;;14.80;;
2558;SDS011;1289;53.488;10.006;2022-08-16T01:42:04;18.67;;;16.97;;
2558;SDS011;1289;53.488;10.006;2022-08-16T01:44:31;17.20;;;15.60;;
2558;SDS011;1289;53.488;10.006;2022-08-16T01:46:58;18.03;;;16.27;;
2558;SDS011;1289;53.488;10.006;2022-08-16T01:49:26;18.00;;;16.30;;
2558;SDS011;1289;53.488;10.006;2022-08-16T01:51:57;18.23;;;16.53;;
2558;SDS011;1289;53.488;10.006;2022-08-16T01:54:34;16.00;;;14.60;;
2558;SDS011;1289;53.488;10.006;2022-08-16T01:57:01;16.57;;;15.07;;
2558;SDS011;1289;53.488;10.006;2022-08-16T01:59:30;16.27;;;14.77;;
2558;SDS011;1289;53.488;10.006;2022-08-16T02:01:57;19.60;;;17.70;;
2558;SDS011;1289;53.488;10.006;2022-08-16T02:04:26;20.00;;;18.00;;
2558;SDS011;1289;53.488;10.006;2022-08-16T02:06:53;19.07;;;17.17;;
2558;SDS011;1289;53.488;10.006;2022-08-16T02:09:21;19.73;;;17.70;;
2558;SDS011;1289;53.488;10.006;2022-08-16T02:11:51;17.43;;;15.93;;
2558;SDS011;1289;53.488;10.006;2022-08-16T02:14:20;19.03;;;17.00;;
2558;SDS011;1289;53.488;10.006;2022-08-16T02:16:49;17.90;;;16.10;;
2558;SDS011;1289;53.488;10.006;2022-08-16T02:19:16;17.97;;;16.30;;
2558;SDS011;1289;53.488;10.006;2022-08-16T02:21:44;18.30;;;16.60;;
2558;SDS011;1289;53.488;10.006;2022-08-16T02:24:14;19.80;;;17.93;;
2558;SDS011;1289;53.488;10.006;2022-08-16T02:26:41;18.53;;;16.63;;
2558;SDS011;1289;53.488;10.006;2022-08-16T02:29:07;19.30;;;17.40;;
2558;SDS011;1289;53.488;10.006;2022-08-16T02:31:34;19.83;;;17.73;;
2558;SDS011;1289;53.488;10.006;2022-08-16T02:34:03;17.97;;;16.37;;
2558;SDS011;1289;53.488;10.006;2022-08-16T02:36:36;18.33;;;16.73;;
2558;SDS011;1289;53.488;10.006;2022-08-16T02:39:05;18.90;;;17.10;;
2558;SDS011;1289;53.488;10.006;2022-08-16T02:41:33;20.10;;;18.00;;
2558;SDS011;1289;53.488;10.006;2022-08-16T02:44:02;20.60;;;16.97;;
2558;SDS011;1289;53.488;10.006;2022-08-16T02:46:30;17.83;;;16.03;;
2558;SDS011;1289;53.488;10.006;2022-08-16T02:48:57;19.93;;;17.93;;
2558;SDS011;1289;53.488;10.006;2022-08-16T02:51:25;19.20;;;17.40;;
2558;SDS011;1289;53.488;10.006;2022-08-16T02:53:52;19.23;;;17.33;;
2558;SDS011;1289;53.488;10.006;2022-08-16T02:56:21;18.37;;;16.67;;
2558;SDS011;1289;53.488;10.006;2022-08-16T02:58:50;18.10;;;16.40;;
2558;SDS011;1289;53.488;10.006;2022-08-16T03:01:19;19.00;;;17.20;;
2558;SDS011;1289;53.488;10.006;2022-08-16T03:03:48;18.90;;;17.00;;
2558;SDS011;1289;53.488;10.006;2022-08-16T03:06:17;18.07;;;16.30;;
2558;SDS011;1289;53.488;10.006;2022-08-16T03:08:49;19.43;;;17.67;;
2558;SDS011;1289;53.488;10.006;2022-08-16T03:11:19;17.23;;;15.63;;
2558;SDS011;1289;53.488;10.006;2022-08-16T03:13:47;20.90;;;18.90;;
2558;SDS011;1289;53.488;10.006;2022-08-16T03:16:15;19.27;;;17.27;;
2558;SDS011;1289;53.488;10.006;2022-08-16T03:18:44;19.53;;;17.63;;
2558;SDS011;1289;53.488;10.006;2022-08-16T03:21:11;18.53;;;16.83;;
2558;SDS011;1289;53.488;10.006;2022-08-16T03:23:38;18.20;;;16.40;;
2558;SDS011;1289;53.488;10.006;2022-08-16T03:26:10;17.93;;;16.17;;
2558;SDS011;1289;53.488;10.006;2022-08-16T03:28:37;18.87;;;16.87;;
2558;SDS011;1289;53.488;10.006;2022-08-16T03:31:05;17.53;;;15.83;;
2558;SDS011;1289;53.488;10.006;2022-08-16T03:33:33;17.63;;;15.93;;
2558;SDS011;1289;53.488;10.006;2022-08-16T03:36:00;18.93;;;17.13;;
2558;SDS011;1289;53.488;10.006;2022-08-16T03:38:32;21.97;;;19.77;;
2558;SDS011;1289;53.488;10.006;2022-08-16T03:41:02;20.10;;;18.13;;
2558;SDS011;1289;53.488;10.006;2022-08-16T03:43:32;20.20;;;18.20;;
2558;SDS011;1289;53.488;10.006;2022-08-16T03:45:59;20.07;;;18.07;;
2558;SDS011;1289;53.488;10.006;2022-08-16T03:48:31;21.37;;;19.23;;
2558;SDS011;1289;53.488;10.006;2022-08-16T03:51:02;19.03;;;17.23;;
2558;SDS011;1289;53.488;10.006;2022-08-16T03:53:34;20.00;;;18.10;;
2558;SDS011;1289;53.488;10.006;2022-08-16T03:56:01;20.57;;;18.57;;
2558;SDS011;1289;53.488;10.006;2022-08-16T03:58:29;21.40;;;19.27;;
2558;SDS011;1289;53.488;10.006;2022-08-16T04:00:57;22.60;;;20.30;;
2558;SDS011;1289;53.488;10.006;2022-08-16T04:03:24;22.13;;;20.00;;
2558;SDS011;1289;53.488;10.006;2022-08-16T04:05:51;23.37;;;21.10;;
2558;SDS011;1289;53.488;10.006;2022-08-16T04:08:18;21.00;;;18.90;;
2558;SDS011;1289;53.488;10.006;2022-08-16T04:10:48;19.90;;;18.00;;
2558;SDS011;1289;53.488;10.006;2022-08-16T04:13:16;23.03;;;20.63;;
2558;SDS011;1289;53.488;10.006;2022-08-16T04:15:43;23.77;;;21.00;;
2558;SDS011;1289;53.488;10.006;2022-08-16T04:18:17;24.23;;;21.73;;
2558;SDS011;1289;53.488;10.006;2022-08-16T04:20:45;23.50;;;21.20;;
2558;SDS011;1289;53.488;10.006;2022-08-16T04:23:13;24.20;;;21.67;;
2558;SDS011;1289;53.488;10.006;2022-08-16T04:25:41;24.60;;;22.20;;
2558;SDS011;1289;53.488;10.006;2022-08-16T04:28:08;23.43;;;20.93;;
2558;SDS011;1289;53.488;10.006;2022-08-16T04:30:36;23.90;;;21.20;;
2558;SDS011;1289;53.488;10.006;2022-08-16T04:33:04;24.90;;;22.33;;
2558;SDS011;1289;53.488;10.006;2022-08-16T04:35:35;21.87;;;19.73;;
2558;SDS011;1289;53.488;10.006;2022-08-16T04:38:02;24.63;;;22.23;;
2558;SDS011;1289;53.488;10.006;2022-08-16T04:40:34;22.43;;;20.23;;
2558;SDS011;1289;53.488;10.006;2022-08-16T04:43:02;24.30;;;21.80;;
2558;SDS011;1289;53.488;10.006;2022-08-16T04:45:30;22.27;;;20.10;;
2558;SDS011;1289;53.488;10.006;2022-08-16T04:47:57;24.10;;;21.90;;
2558;SDS011;1289;53.488;10.006;2022-08-16T04:50:30;24.30;;;21.77;;
2558;SDS011;1289;53.488;10.006;2022-08-16T04:53:16;23.50;;;21.10;;
2558;SDS011;1289;53.488;10.006;2022-08-16T04:55:45;24.53;;;22.17;;
2558;SDS011;1289;53.488;10.006;2022-08-16T04:58:11;24.30;;;22.00;;
2558;SDS011;1289;53.488;10.006;2022-08-16T05:00:38;25.30;;;22.63;;
2558;SDS011;1289;53.488;10.006;2022-08-16T05:03:14;28.40;;;24.23;;
2558;SDS011;1289;53.488;10.006;2022-08-16T05:05:44;26.40;;;23.70;;
2558;SDS011;1289;53.488;10.006;2022-08-16T05:08:13;27.70;;;24.77;;
2558;SDS011;1289;53.488;10.006;2022-08-16T05:10:44;28.40;;;24.70;;
2558;SDS011;1289;53.488;10.006;2022-08-16T05:13:11;25.60;;;23.00;;
2558;SDS011;1289;53.488;10.006;2022-08-16T05:15:38;25.53;;;23.10;;
2558;SDS011;1289;53.488;10.006;2022-08-16T05:18:05;26.43;;;23.63;;
2558;SDS011;1289;53.488;10.006;2022-08-16T05:20:39;28.30;;;25.40;;
2558;SDS011;1289;53.488;10.006;2022-08-16T05:23:06;28.10;;;25.30;;
2558;SDS011;1289;53.488;10.006;2022-08-16T05:25:34;30.03;;;26.80;;
2558;SDS011;1289;53.488;10.006;2022-08-16T05:28:03;30.37;;;26.30;;
2558;SDS011;1289;53.488;10.006;2022-08-16T05:30:30;29.40;;;26.40;;
2558;SDS011;1289;53.488;10.006;2022-08-16T05:32:56;25.23;;;22.90;;
2558;SDS011;1289;53.488;10.006;2022-08-16T05:35:23;25.03;;;22.53;;
2558;SDS011;1289;53.488;10.006;2022-08-16T05:38:19;25.17;;;22.60;;
2558;SDS011;1289;53.488;10.006;2022-08-16T05:40:52;27.10;;;24.40;;
2558;SDS011;1289;53.488;10.006;2022-08-16T05:43:21;29.07;;;25.50;;
2558;SDS011;1289;53.488;10.006;2022-08-16T05:45:48;29.40;;;26.30;;
2558;SDS011;1289;53.488;10.006;2022-08-16T05:48:15;27.10;;;24.40;;
2558;SDS011;1289;53.488;10.006;2022-08-16T05:50:52;26.73;;;23.30;;
2558;SDS011;1289;53.488;10.006;2022-08-16T05:53:19;27.53;;;24.57;;
2558;SDS011;1289;53.488;10.006;2022-08-16T05:56:22;30.40;;;27.40;;
2558;SDS011;1289;53.488;10.006;2022-08-16T05:58:51;29.57;;;26.53;;
2558;SDS011;1289;53.488;10.006;2022-08-16T06:01:18;29.07;;;26.10;;
2558;SDS011;1289;53.488;10.006;2022-08-16T06:03:48;27.90;;;25.00;;
2558;SDS011;1289;53.488;10.006;2022-08-16T06:06:30;28.70;;;25.60;;
2558;SDS011;1289;53.488;10.006;2022-08-16T06:08:59;27.03;;;23.53;;
2558;SDS011;1289;53.488;10.006;2022-08-16T06:11:26;30.03;;;26.10;;
2558;SDS011;1289;53.488;10.006;2022-08-16T06:13:58;24.93;;;22.37;;
2558;SDS011;1289;53.488;10.006;2022-08-16T06:16:33;26.27;;;23.47;;
2558;SDS011;1289;53.488;10.006;2022-08-16T06:19:00;26.63;;;24.03;;
2558;SDS011;1289;53.488;10.006;2022-08-16T06:21:26;25.43;;;22.30;;
2558;SDS011;1289;53.488;10.006;2022-08-16T06:23:59;23.90;;;21.40;;
2558;SDS011;1289;53.488;10.006;2022-08-16T06:26:26;21.40;;;19.50;;
2558;SDS011;1289;53.488;10.006;2022-08-16T06:28:53;19.90;;;18.00;;
2558;SDS011;1289;53.488;10.006;2022-08-16T06:31:26;21.07;;;19.07;;
2558;SDS011;1289;53.488;10.006;2022-08-16T06:33:55;20.50;;;17.30;;
2558;SDS011;1289;53.488;10.006;2022-08-16T06:36:24;14.90;;;13.60;;
2558;SDS011;1289;53.488;10.006;2022-08-16T06:39:10;14.20;;;12.70;;
2558;SDS011;1289;53.488;10.006;2022-08-16T06:41:53;14.57;;;13.17;;
2558;SDS011;1289;53.488;10.006;2022-08-16T06:44:49;12.30;;;11.00;;
2558;SDS011;1289;53.488;10.006;2022-08-16T06:47:43;12.10;;;11.10;;
2558;SDS011;1289;53.488;10.006;2022-08-16T06:50:09;14.03;;;12.73;;
2558;SDS011;1289;53.488;10.006;2022-08-16T06:52:42;12.60;;;11.50;;
2558;SDS011;1289;53.488;10.006;2022-08-16T06:55:11;12.37;;;11.17;;
2558;SDS011;1289;53.488;10.006;2022-08-16T06:57:42;13.50;;;12.20;;
2558;SDS011;1289;53.488;10.006;2022-08-16T07:00:10;12.47;;;11.37;;
2558;SDS011;1289;53.488;10.006;2022-08-16T07:02:48;13.07;;;11.87;;
2558;SDS011;1289;53.488;10.006;2022-08-16T07:05:15;14.73;;;13.23;;
2558;SDS011;1289;53.488;10.006;2022-08-16T07:07:56;13.43;;;12.13;;
2558;SDS011;1289;53.488;10.006;2022-08-16T07:10:25;12.57;;;11.37;;
2558;SDS011;1289;53.488;10.006;2022-08-16T07:12:52;13.10;;;11.80;;
2558;SDS011;1289;53.488;10.006;2022-08-16T07:15:19;10.70;;;9.73;;
2558;SDS011;1289;53.488;10.006;2022-08-16T07:17:47;12.20;;;11.17;;
2558;SDS011;1289;53.488;10.006;2022-08-16T07:20:14;12.77;;;11.63;;
2558;SDS011;1289;53.488;10.006;2022-08-16T07:22:50;11.30;;;10.30;;
2558;SDS011;1289;53.488;10.006;2022-08-16T07:25:27;12.47;;;11.37;;
2558;SDS011;1289;53.488;10.006;2022-08-16T07:27:54;11.67;;;10.67;;
2558;SDS011;1289;53.488;10.006;2022-08-16T07:30:25;12.47;;;11.00;;
2558;SDS011;1289;53.488;10.006;2022-08-16T07:32:54;11.47;;;10.40;;
2558;SDS011;1289;53.488;10.006;2022-08-16T07:35:21;11.40;;;10.30;;
2558;SDS011;1289;53.488;10.006;2022-08-16T07:37:47;11.53;;;10.53;;
2558;SDS011;1289;53.488;10.006;2022-08-16T07:40:22;12.03;;;11.03;;
2558;SDS011;1289;53.488;10.006;2022-08-16T07:42:50;12.60;;;11.40;;
2558;SDS011;1289;53.488;10.006;2022-08-16T07:45:17;12.57;;;11.57;;
2558;SDS011;1289;53.488;10.006;2022-08-16T07:47:48;12.67;;;11.30;;
2558;SDS011;1289;53.488;10.006;2022-08-16T07:50:16;11.47;;;10.30;;
2558;SDS011;1289;53.488;10.006;2022-08-16T07:52:43;11.53;;;10.43;;
2558;SDS011;1289;53.488;10.006;2022-08-16T07:55:12;11.90;;;10.70;;
2558;SDS011;1289;53.488;10.006;2022-08-16T07:57:40;11.17;;;10.20;;
2558;SDS011;1289;53.488;10.006;2022-08-16T08:00:09;10.83;;;9.93;;
2558;SDS011;1289;53.488;10.006;2022-08-16T08:02:39;10.63;;;9.53;;
2558;SDS011;1289;53.488;10.006;2022-08-16T08:05:10;10.57;;;9.63;;
2558;SDS011;1289;53.488;10.006;2022-08-16T08:07:39;11.50;;;10.40;;
2558;SDS011;1289;53.488;10.006;2022-08-16T08:10:06;11.10;;;8.70;;
2558;SDS011;1289;53.488;10.006;2022-08-16T08:12:33;9.27;;;8.47;;
2558;SDS011;1289;53.488;10.006;2022-08-16T08:15:00;9.33;;;8.53;;
2558;SDS011;1289;53.488;10.006;2022-08-16T08:17:27;8.60;;;7.90;;
2558;SDS011;1289;53.488;10.006;2022-08-16T08:19:55;9.10;;;8.27;;
2558;SDS011;1289;53.488;10.006;2022-08-16T08:22:23;8.30;;;7.70;;
2558;SDS011;1289;53.488;10.006;2022-08-16T08:24:54;8.73;;;7.83;;
2558;SDS011;1289;53.488;10.006;2022-08-16T08:27:21;8.37;;;7.60;;
2558;SDS011;1289;53.488;10.006;2022-08-16T08:29:47;8.63;;;7.80;;
2558;SDS011;1289;53.488;10.006;2022-08-16T08:32:15;7.70;;;7.10;;
2558;SDS011;1289;53.488;10.006;2022-08-16T08:34:45;8.13;;;7.33;;
2558;SDS011;1289;53.488;10.006;2022-08-16T08:37:13;8.00;;;7.40;;
2558;SDS011;1289;53.488;10.006;2022-08-16T08:39:41;9.60;;;8.83;;
2558;SDS011;1289;53.488;10.006;2022-08-16T08:42:09;8.70;;;7.80;;
2558;SDS011;1289;53.488;10.006;2022-08-16T08:44:36;8.67;;;7.97;;
2558;SDS011;1289;53.488;10.006;2022-08-16T08:47:06;9.50;;;8.60;;
2558;SDS011;1289;53.488;10.006;2022-08-16T08:49:33;9.50;;;8.77;;
2558;SDS011;1289;53.488;10.006;2022-08-16T08:52:02;9.37;;;8.67;;
2558;SDS011;1289;53.488;10.006;2022-08-16T08:54:29;8.93;;;8.23;;
2558;SDS011;1289;53.488;10.006;2022-08-16T08:56:57;9.20;;;8.47;;
2558;SDS011;1289;53.488;10.006;2022-08-16T08:59:37;10.83;;;8.87;;
2558;SDS011;1289;53.488;10.006;2022-08-16T09:02:05;10.43;;;9.43;;
2558;SDS011;1289;53.488;10.006;2022-08-16T09:04:53;9.70;;;8.90;;
2558;SDS011;1289;53.488;10.006;2022-08-16T09:07:21;10.17;;;9.27;;
2558;SDS011;1289;53.488;10.006;2022-08-16T09:09:48;9.80;;;9.10;;
2558;SDS011;1289;53.488;10.006;2022-08-16T09:12:15;9.97;;;8.97;;
2558;SDS011;1289;53.488;10.006;2022-08-16T09:15:10;9.67;;;8.97;;
2558;SDS011;1289;53.488;10.006;2022-08-16T09:17:39;10.10;;;9.20;;
2558;SDS011;1289;53.488;10.006;2022-08-16T09:20:08;11.03;;;8.90;;
2558;SDS011;1289;53.488;10.006;2022-08-16T09:22:37;11.57;;;8.63;;
2558;SDS011;1289;53.488;10.006;2022-08-16T09:25:04;8.23;;;7.57;;
2558;SDS011;1289;53.488;10.006;2022-08-16T09:27:33;8.00;;;7.40;;
2558;SDS011;1289;53.488;10.006;2022-08-16T09:30:00;7.90;;;7.20;;
2558;SDS011;1289;53.488;10.006;2022-08-16T09:32:28;8.27;;;7.57;;
2558;SDS011;1289;53.488;10.006;2022-08-16T09:34:55;7.60;;;6.90;;
2558;SDS011;1289;53.488;10.006;2022-08-16T09:37:22;10.00;;;7.70;;
2558;SDS011;1289;53.488;10.006;2022-08-16T09:39:48;8.50;;;7.70;;
2558;SDS011;1289;53.488;10.006;2022-08-16T09:42:16;8.00;;;7.30;;
2558;SDS011;1289;53.488;10.006;2022-08-16T09:44:42;8.47;;;7.77;;
2558;SDS011;1289;53.488;10.006;2022-08-16T09:47:09;8.53;;;7.83;;
2558;SDS011;1289;53.488;10.006;2022-08-16T09:49:37;8.23;;;7.60;;
2558;SDS011;1289;53.488;10.006;2022-08-16T09:52:04;8.03;;;7.43;;
2558;SDS011;1289;53.488;10.006;2022-08-16T09:54:31;8.07;;;7.47;;
2558;SDS011;1289;53.488;10.006;2022-08-16T09:56:57;7.33;;;6.73;;
2558;SDS011;1289;53.488;10.006;2022-08-16T09:59:24;8.70;;;7.93;;
2558;SDS011;1289;53.488;10.006;2022-08-16T10:01:51;8.30;;;7.60;;
2558;SDS011;1289;53.488;10.006;2022-08-16T10:04:19;8.37;;;7.77;;
2558;SDS011;1289;53.488;10.006;2022-08-16T10:06:47;8.13;;;7.37;;
2558;SDS011;1289;53.488;10.006;2022-08-16T10:09:14;10.00;;;7.90;;
2558;SDS011;1289;53.488;10.006;2022-08-16T10:11:41;7.40;;;6.90;;
2558;SDS011;1289;53.488;10.006;2022-08-16T10:14:25;8.33;;;7.53;;
2558;SDS011;1289;53.488;10.006;2022-08-16T10:16:55;7.63;;;6.80;;
2558;SDS011;1289;53.488;10.006;2022-08-16T10:19:22;8.80;;;8.00;;
2558;SDS011;1289;53.488;10.006;2022-08-16T10:21:50;8.33;;;7.73;;
2558;SDS011;1289;53.488;10.006;2022-08-16T10:24:18;8.13;;;7.43;;
2558;SDS011;1289;53.488;10.006;2022-08-16T10:26:45;7.77;;;7.07;;
2558;SDS011;1289;53.488;10.006;2022-08-16T10:29:12;8.87;;;8.10;;
2558;SDS011;1289;53.488;10.006;2022-08-16T10:31:39;9.53;;;8.63;;
2558;SDS011;1289;53.488;10.006;2022-08-16T10:34:05;9.47;;;8.30;;
2558;SDS011;1289;53.488;10.006;2022-08-16T10:36:33;8.50;;;7.80;;
2558;SDS011;1289;53.488;10.006;2022-08-16T10:39:01;7.60;;;7.03;;
2558;SDS011;1289;53.488;10.006;2022-08-16T10:41:29;9.50;;;7.40;;
2558;SDS011;1289;53.488;10.006;2022-08-16T10:43:56;7.83;;;7.23;;
2558;SDS011;1289;53.488;10.006;2022-08-16T10:46:23;9.67;;;8.87;;
2558;SDS011;1289;53.488;10.006;2022-08-16T10:48:50;9.63;;;8.83;;
2558;SDS011;1289;53.488;10.006;2022-08-16T10:51:16;9.70;;;8.90;;
2558;SDS011;1289;53.488;10.006;2022-08-16T10:53:43;11.27;;;10.27;;
2558;SDS011;1289;53.488;10.006;2022-08-16T10:56:11;9.57;;;8.77;;
2558;SDS011;1289;53.488;10.006;2022-08-16T10:58:39;9.23;;;8.53;;
2558;SDS011;1289;53.488;10.006;2022-08-16T11:01:06;8.87;;;8.17;;
2558;SDS011;1289;53.488;10.006;2022-08-16T11:03:34;10.30;;;7.90;;
2558;SDS011;1289;53.488;10.006;2022-08-16T11:06:01;8.63;;;7.93;;
2558;SDS011;1289;53.488;10.006;2022-08-16T11:08:29;8.00;;;7.30;;
2558;SDS011;1289;53.488;10.006;2022-08-16T11:10:55;7.70;;;7.10;;
2558;SDS011;1289;53.488;10.006;2022-08-16T11:13:24;8.53;;;7.63;;
2558;SDS011;1289;53.488;10.006;2022-08-16T11:15:52;8.60;;;7.90;;
2558;SDS011;1289;53.488;10.006;2022-08-16T11:18:19;9.97;;;8.93;;
2558;SDS011;1289;53.488;10.006;2022-08-16T11:20:46;8.47;;;7.80;;
2558;SDS011;1289;53.488;10.006;2022-08-16T11:23:13;9.27;;;8.43;;
2558;SDS011;1289;53.488;10.006;2022-08-16T11:25:40;9.80;;;9.00;;
2558;SDS011;1289;53.488;10.006;2022-08-16T11:28:07;8.50;;;7.90;;
2558;SDS011;1289;53.488;10.006;2022-08-16T11:30:36;9.73;;;8.93;;
2558;SDS011;1289;53.488;10.006;2022-08-16T11:33:02;8.73;;;8.13;;
2558;SDS011;1289;53.488;10.006;2022-08-16T11:35:30;9.50;;;8.07;;
2558;SDS011;1289;53.488;10.006;2022-08-16T11:37:58;8.13;;;7.53;;
2558;SDS011;1289;53.488;10.006;2022-08-16T11:40:26;8.60;;;7.60;;
2558;SDS011;1289;53.488;10.006;2022-08-16T11:42:55;10.63;;;9.50;;
2558;SDS011;1289;53.488;10.006;2022-08-16T11:45:22;9.97;;;9.17;;
2558;SDS011;1289;53.488;10.006;2022-08-16T11:47:50;10.63;;;9.83;;
2558;SDS011;1289;53.488;10.006;2022-08-16T11:50:18;9.53;;;8.73;;
2558;SDS011;1289;53.488;10.006;2022-08-16T11:52:48;11.40;;;10.40;;
2558;SDS011;1289;53.488;10.006;2022-08-16T11:55:15;11.13;;;10.10;;
2558;SDS011;1289;53.488;10.006;2022-08-16T11:57:42;9.97;;;9.10;;
2558;SDS011;1289;53.488;10.006;2022-08-16T12:00:11;9.30;;;8.50;;
2558;SDS011;1289;53.488;10.006;2022-08-16T12:02:39;8.67;;;7.97;;
2558;SDS011;1289;53.488;10.006;2022-08-16T12:05:08;8.80;;;8.00;;
2558;SDS011;1289;53.488;10.006;2022-08-16T12:07:37;7.87;;;7.23;;
2558;SDS011;1289;53.488;10.006;2022-08-16T12:10:04;9.80;;;8.90;;
2558;SDS011;1289;53.488;10.006;2022-08-16T12:12:32;8.53;;;7.80;;
2558;SDS011;1289;53.488;10.006;2022-08-16T12:14:59;9.40;;;8.60;;
2558;SDS011;1289;53.488;10.006;2022-08-16T12:17:26;9.37;;;8.57;;
2558;SDS011;1289;53.488;10.006;2022-08-16T12:19:53;8.47;;;7.77;;
2558;SDS011;1289;53.488;10.006;2022-08-16T12:22:21;8.90;;;8.20;;
2558;SDS011;1289;53.488;10.006;2022-08-16T12:24:49;7.80;;;7.10;;
2558;SDS011;1289;53.488;10.006;2022-08-16T12:27:16;8.60;;;7.90;;
2558;SDS011;1289;53.488;10.006;2022-08-16T12:29:42;10.10;;;9.30;;
2558;SDS011;1289;53.488;10.006;2022-08-16T12:32:09;8.40;;;7.60;;
2558;SDS011;1289;53.488;10.006;2022-08-16T12:34:36;11.93;;;10.70;;
2558;SDS011;1289;53.488;10.006;2022-08-16T12:37:02;9.00;;;8.23;;
2558;SDS011;1289;53.488;10.006;2022-08-16T12:39:30;9.10;;;8.37;;
2558;SDS011;1289;53.488;10.006;2022-08-16T12:41:57;8.87;;;8.17;;
2558;SDS011;1289;53.488;10.006;2022-08-16T12:44:24;10.60;;;8.37;;
2558;SDS011;1289;53.488;10.006;2022-08-16T12:46:51;8.70;;;8.00;;
2558;SDS011;1289;53.488;10.006;2022-08-16T12:49:32;9.80;;;9.00;;
2558;SDS011;1289;53.488;10.006;2022-08-16T12:51:58;9.10;;;8.30;;
2558;SDS011;1289;53.488;10.006;2022-08-16T12:54:25;11.73;;;8.30;;
2558;SDS011;1289;53.488;10.006;2022-08-16T12:56:53;9.03;;;8.33;;
2558;SDS011;1289;53.488;10.006;2022-08-16T12:59:20;8.87;;;8.17;;
2558;SDS011;1289;53.488;10.006;2022-08-16T13:01:47;9.30;;;8.50;;
2558;SDS011;1289;53.488;10.006;2022-08-16T13:04:14;9.80;;;9.10;;
2558;SDS011;1289;53.488;10.006;2022-08-16T13:06:41;12.00;;;8.70;;
2558;SDS011;1289;53.488;10.006;2022-08-16T13:09:08;10.03;;;8.77;;
2558;SDS011;1289;53.488;10.006;2022-08-16T13:11:47;9.33;;;8.53;;
2558;SDS011;1289;53.488;10.006;2022-08-16T13:14:25;9.70;;;8.90;;
2558;SDS011;1289;53.488;10.006;2022-08-16T13:16:53;9.03;;;8.33;;
2558;SDS011;1289;53.488;10.006;2022-08-16T13:19:20;10.63;;;9.53;;
2558;SDS011;1289;53.488;10.006;2022-08-16T13:21:47;9.40;;;8.50;;
2558;SDS011;1289;53.488;10.006;2022-08-16T13:24:13;9.57;;;8.73;;
2558;SDS011;1289;53.488;10.006;2022-08-16T13:26:40;10.13;;;9.23;;
2558;SDS011;1289;53.488;10.006;2022-08-16T13:29:06;8.93;;;8.23;;
2558;SDS011;1289;53.488;10.006;2022-08-16T13:31:34;10.00;;;9.30;;
2558;SDS011;1289;53.488;10.006;2022-08-16T13:34:01;9.27;;;8.43;;
2558;SDS011;1289;53.488;10.006;2022-08-16T13:36:28;8.73;;;8.03;;
2558;SDS011;1289;53.488;10.006;2022-08-16T13:38:55;9.57;;;8.73;;
2558;SDS011;1289;53.488;10.006;2022-08-16T13:41:21;8.63;;;7.70;;
2558;SDS011;1289;53.488;10.006;2022-08-16T13:43:49;8.47;;;7.63;;
2558;SDS011;1289;53.488;10.006;2022-08-16T13:46:16;8.53;;;7.83;;
2558;SDS011;1289;53.488;10.006;2022-08-16T13:48:44;8.37;;;7.67;;
2558;SDS011;1289;53.488;10.006;2022-08-16T13:51:11;12.00;;;7.90;;
2558;SDS011;1289;53.488;10.006;2022-08-16T13:53:38;8.53;;;7.93;;
2558;SDS011;1289;53.488;10.006;2022-08-16T13:56:05;9.20;;;8.27;;
2558;SDS011;1289;53.488;10.006;2022-08-16T13:58:31;7.80;;;7.20;;
2558;SDS011;1289;53.488;10.006;2022-08-16T14:00:58;8.03;;;7.37;;
2558;SDS011;1289;53.488;10.006;2022-08-16T14:03:25;7.67;;;7.07;;
2558;SDS011;1289;53.488;10.006;2022-08-16T14:05:53;9.10;;;8.20;;
2558;SDS011;1289;53.488;10.006;2022-08-16T14:08:20;9.00;;;8.10;;
2558;SDS011;1289;53.488;10.006;2022-08-16T14:10:47;8.90;;;8.20;;
2558;SDS011;1289;53.488;10.006;2022-08-16T14:13:14;8.47;;;7.87;;
2558;SDS011;1289;53.488;10.006;2022-08-16T14:15:40;8.97;;;8.17;;
2558;SDS011;1289;53.488;10.006;2022-08-16T14:18:07;8.77;;;8.00;;
2558;SDS011;1289;53.488;10.006;2022-08-16T14:20:34;8.87;;;8.00;;
2558;SDS011;1289;53.488;10.006;2022-08-16T14:23:02;9.30;;;8.57;;
2558;SDS011;1289;53.488;10.006;2022-08-16T14:25:30;8.20;;;7.60;;
2558;SDS011;1289;53.488;10.006;2022-08-16T14:27:56;8.63;;;7.93;;
2558;SDS011;1289;53.488;10.006;2022-08-16T14:30:23;9.07;;;8.20;;
2558;SDS011;1289;53.488;10.006;2022-08-16T14:32:51;8.30;;;7.60;;
2558;SDS011;1289;53.488;10.006;2022-08-16T14:35:19;8.23;;;7.63;;
2558;SDS011;1289;53.488;10.006;2022-08-16T14:37:48;8.10;;;7.50;;
2558;SDS011;1289;53.488;10.006;2022-08-16T14:40:16;8.87;;;8.03;;
2558;SDS011;1289;53.488;10.006;2022-08-16T14:42:44;8.57;;;7.97;;
2558;SDS011;1289;53.488;10.006;2022-08-16T14:45:12;8.97;;;8.00;;
2558;SDS011;1289;53.488;10.006;2022-08-16T14:47:41;8.60;;;7.87;;
2558;SDS011;1289;53.488;10.006;2022-08-16T14:50:09;8.87;;;8.10;;
2558;SDS011;1289;53.488;10.006;2022-08-16T14:52:38;8.23;;;7.53;;
2558;SDS011;1289;53.488;10.006;2022-08-16T14:55:06;8.10;;;7.40;;